Time;durP1;ratioP1;P1;durP2;ratioP2;P2;SDS_P1;SDS_P2;PMS_P1;PMS_P2;Temp;Humidity;BMP_temperature;BMP_pressure;BME280_temperature;BME280_humidity;BME280_pressure;Samples;Min_cycle;Max_cycle;Signal;HPM_P1;HPM_P2
2021/01/30 00:02:19;;;;;;;;;;;179.80;2252.80;;;;;;5099266;28;19990;-66
2021/01/30 00:04:47;;;;;;;;;;;179.90;2252.80;;;;;;5098906;28;19961;-66
2021/01/30 00:07:12;;;;;;;;;;;179.90;2252.80;;;;;;5092246;28;19919;-66
2021/01/30 00:09:38;;;;;;;;;;;179.80;2252.80;;;;;;5079781;28;19904;-66
2021/01/30 00:12:06;;;;;;;;;;;179.80;2252.80;;;;;;5078684;28;19904;-66
2021/01/30 00:14:34;;;;;;;;;;;179.60;2252.80;;;;;;5079400;28;19909;-66
2021/01/30 00:17:00;;;;;;;;;;;179.40;2252.80;;;;;;5079509;28;20049;-66
2021/01/30 00:19:26;;;;;;;;;;;179.40;2252.80;;;;;;5079554;28;19931;-66
2021/01/30 00:21:55;;;;;;;;;;;179.30;2252.80;;;;;;5079114;28;20003;-66
2021/01/30 00:24:21;;;;;;;;;;;179.30;2252.80;;;;;;5078775;28;19908;-66
2021/01/30 00:26:51;;;;;;;;;;;179.30;2252.80;;;;;;5079550;28;19904;-66
2021/01/30 00:29:17;;;;;;;;;;;179.20;2252.80;;;;;;5079220;28;20294;-66
2021/01/30 00:31:42;;;;;;;;;;;154.50;2252.80;;;;;;5078896;28;19910;-66
2021/01/30 00:34:08;;;;;;;;;;;179.20;2252.80;;;;;;5078767;28;19915;-66
2021/01/30 00:36:34;;;;;;;;;;;179.20;2252.80;;;;;;5079348;28;19942;-66
2021/01/30 00:38:59;;;;;;;;;;;179.30;2252.80;;;;;;5078494;28;19947;-66
2021/01/30 00:41:25;;;;;;;;;;;179.30;2252.80;;;;;;5078996;28;20353;-66
2021/01/30 00:43:51;;;;;;;;;;;179.30;2252.80;;;;;;5078961;28;19911;-66
2021/01/30 00:46:16;;;;;;;;;;;179.20;2252.80;;;;;;5078625;28;20003;-66
2021/01/30 00:48:42;;;;;;;;;;;154.50;2252.80;;;;;;5078842;28;19908;-66
2021/01/30 00:51:08;;;;;;;;;;;179.20;2252.80;;;;;;5078797;28;20335;-66
2021/01/30 00:53:34;;;;;;;;;;;179.20;2252.80;;;;;;5078461;28;19908;-66
2021/01/30 00:55:59;;;;;;;;;;;179.20;2252.80;;;;;;5078910;28;19954;-66
2021/01/30 00:58:25;;;;;;;;;;;179.20;2252.80;;;;;;5078084;28;19909;-66
2021/01/30 01:00:50;;;;;;;;;;;179.20;2252.80;;;;;;5078165;28;19905;-65
2021/01/30 01:03:16;;;;;;;;;;;179.20;2252.80;;;;;;5078598;28;20294;-66
2021/01/30 01:05:42;;;;;;;;;;;179.20;2252.80;;;;;;5078605;28;20007;-66
2021/01/30 01:08:07;;;;;;;;;;;179.20;2252.80;;;;;;5077927;28;19990;-66
2021/01/30 01:10:33;;;;;;;;;;;179.40;2252.80;;;;;;5078353;28;19904;-66
2021/01/30 01:12:58;;;;;;;;;;;179.30;2252.80;;;;;;5078385;28;20294;-66
2021/01/30 01:15:24;;;;;;;;;;;179.40;2252.80;;;;;;5077704;28;19908;-66
2021/01/30 01:17:50;;;;;;;;;;;179.40;2252.80;;;;;;5078375;28;19909;-66
2021/01/30 01:20:20;;;;;;;;;;;179.40;2252.80;;;;;;5078263;28;19977;-66
2021/01/30 01:22:46;;;;;;;;;;;179.40;2252.80;;;;;;5078295;28;19911;-66
2021/01/30 01:25:11;;;;;;;;;;;179.50;2252.80;;;;;;5077610;28;19908;-66
2021/01/30 01:27:37;;;;;;;;;;;179.70;2252.80;;;;;;5078127;28;20034;-66
2021/01/30 01:30:05;;;;;;;;;;;179.70;2252.80;;;;;;5077852;28;20218;-66
2021/01/30 01:32:30;;;;;;;;;;;179.70;2252.80;;;;;;5077692;28;19911;-66
2021/01/30 01:34:56;;;;;;;;;;;179.80;2252.80;;;;;;5078086;28;19912;-66
2021/01/30 01:37:22;;;;;;;;;;;179.60;2252.80;;;;;;5078373;28;20293;-66
2021/01/30 01:39:47;;;;;;;;;;;179.70;2252.80;;;;;;5078088;28;19998;-66
2021/01/30 01:42:21;;;;;;;;;;;179.60;2252.80;;;;;;5077756;28;19911;-66
2021/01/30 01:44:47;;;;;;;;;;;179.50;2252.80;;;;;;5077510;28;19915;-66
2021/01/30 01:47:18;;;;;;;;;;;179.50;2252.80;;;;;;5077727;28;19904;-66
2021/01/30 01:49:44;;;;;;;;;;;179.50;2252.80;;;;;;5077336;28;19995;-66
2021/01/30 01:52:09;;;;;;;;;;;179.40;2252.80;;;;;;5077619;28;19943;-66
2021/01/30 01:54:36;;;;;;;;;;;179.40;2252.80;;;;;;5077863;28;19908;-66
2021/01/30 01:57:11;;;;;;;;;;;179.40;2252.80;;;;;;5077927;28;19961;-65
2021/01/30 01:59:39;;;;;;;;;;;179.30;2252.80;;;;;;5077297;28;19957;-66
2021/01/30 02:02:05;;;;;;;;;;;179.20;2252.80;;;;;;5077576;28;19912;-65
2021/01/30 02:04:31;;;;;;;;;;;179.30;2252.80;;;;;;5077354;28;19905;-66
2021/01/30 02:06:57;;;;;;;;;;;179.20;2252.80;;;;;;5077824;28;19904;-66
2021/01/30 02:09:24;;;;;;;;;;;179.20;2252.80;;;;;;5077237;28;19905;-66
2021/01/30 02:11:57;;;;;;;;;;;179.30;2252.80;;;;;;5077450;28;20348;-66
2021/01/30 02:14:23;;;;;;;;;;;179.30;2252.80;;;;;;5081263;28;20363;-66
2021/01/30 02:16:50;;;;;;;;;;;179.30;2252.80;;;;;;5081819;28;19909;-65
2021/01/30 02:19:30;;;;;;;;;;;179.40;2252.80;;;;;;5081485;28;20042;-66
2021/01/30 02:22:14;;;;;;;;;;;179.40;2252.80;;;;;;5082021;28;19958;-66
2021/01/30 02:24:52;;;;;;;;;;;179.40;2252.80;;;;;;5081392;28;19912;-66
2021/01/30 02:27:21;;;;;;;;;;;179.40;2252.80;;;;;;5081916;28;19904;-66
2021/01/30 02:30:22;;;;;;;;;;;179.40;2252.80;;;;;;5080985;28;19936;-65
2021/01/30 02:33:03;;;;;;;;;;;179.50;2252.80;;;;;;5063630;28;19905;-66
2021/01/30 02:35:35;;;;;;;;;;;179.50;2252.80;;;;;;5081327;28;20014;-66
2021/01/30 02:38:10;;;;;;;;;;;179.50;2252.80;;;;;;5080812;28;19916;-66
2021/01/30 02:40:40;;;;;;;;;;;179.50;2252.80;;;;;;5081069;28;20227;-65
2021/01/30 02:43:08;;;;;;;;;;;179.50;2252.80;;;;;;5081550;28;19904;-66
2021/01/30 02:45:39;;;;;;;;;;;179.50;2252.80;;;;;;5080939;28;19958;-66
2021/01/30 02:48:08;;;;;;;;;;;179.40;2252.80;;;;;;5081185;28;19911;-66
2021/01/30 02:50:45;;;;;;;;;;;179.40;2252.80;;;;;;5080849;28;20321;-66
2021/01/30 02:53:19;;;;;;;;;;;179.50;2252.80;;;;;;5081081;28;19940;-66
2021/01/30 02:55:45;;;;;;;;;;;179.50;2252.80;;;;;;5080986;28;19908;-66
2021/01/30 02:58:15;;;;;;;;;;;179.60;2252.80;;;;;;5080730;28;19912;-65
2021/01/30 03:00:42;;;;;;;;;;;179.50;2252.80;;;;;;5080991;28;19904;-66
2021/01/30 03:03:08;;;;;;;;;;;179.40;2252.80;;;;;;5080879;28;19911;-66
2021/01/30 03:05:34;;;;;;;;;;;179.40;2252.80;;;;;;5079694;28;20003;-66
2021/01/30 03:08:02;;;;;;;;;;;179.30;2252.80;;;;;;5079935;28;19904;-66
2021/01/30 03:10:28;;;;;;;;;;;179.30;2252.80;;;;;;5079603;28;19909;-66
2021/01/30 03:12:53;;;;;;;;;;;179.50;2252.80;;;;;;5079311;28;20183;-66
2021/01/30 03:15:22;;;;;;;;;;;179.50;2252.80;;;;;;5078857;28;19909;-66
2021/01/30 03:17:48;;;;;;;;;;;179.50;2252.80;;;;;;5079776;28;19909;-66
2021/01/30 03:20:14;;;;;;;;;;;179.50;2252.80;;;;;;5079176;28;19905;-66
2021/01/30 03:22:40;;;;;;;;;;;179.50;2252.80;;;;;;5079287;28;20041;-65
2021/01/30 03:25:06;;;;;;;;;;;179.50;2252.80;;;;;;5078829;28;19942;-65
2021/01/30 03:27:33;;;;;;;;;;;179.50;2252.80;;;;;;5079022;28;20274;-66
2021/01/30 03:29:59;;;;;;;;;;;179.50;2252.80;;;;;;5079265;28;19916;-66
2021/01/30 03:32:28;;;;;;;;;;;179.50;2252.80;;;;;;5079251;28;19911;-66
2021/01/30 03:34:55;;;;;;;;;;;179.50;2252.80;;;;;;5078322;28;20291;-66
2021/01/30 03:37:21;;;;;;;;;;;179.50;2252.80;;;;;;5079144;28;20329;-66
2021/01/30 03:39:47;;;;;;;;;;;179.50;2252.80;;;;;;5078891;28;19905;-66
2021/01/30 03:42:13;;;;;;;;;;;179.50;2252.80;;;;;;5078873;28;20216;-66
2021/01/30 03:44:38;;;;;;;;;;;179.50;2252.80;;;;;;5079055;28;19909;-66
2021/01/30 03:47:04;;;;;;;;;;;179.50;2252.80;;;;;;5078462;28;19904;-66
2021/01/30 03:49:30;;;;;;;;;;;179.50;2252.80;;;;;;5078450;28;19936;-66
2021/01/30 03:51:55;;;;;;;;;;;179.50;2252.80;;;;;;5078880;28;19904;-66
2021/01/30 03:54:21;;;;;;;;;;;179.50;2252.80;;;;;;5078348;28;19934;-66
2021/01/30 03:56:47;;;;;;;;;;;179.40;2252.80;;;;;;5079177;28;19953;-65
2021/01/30 03:59:17;;;;;;;;;;;179.30;2252.80;;;;;;5078856;28;19950;-65
2021/01/30 04:01:43;;;;;;;;;;;179.20;2252.80;;;;;;5078542;28;19904;-66
2021/01/30 04:04:09;;;;;;;;;;;179.30;2252.80;;;;;;5078772;28;19926;-65
2021/01/30 04:06:34;;;;;;;;;;;179.20;2252.80;;;;;;5053190;28;745716;-65
2021/01/30 04:09:00;;;;;;;;;;;154.50;2252.80;;;;;;5079770;28;19908;-65
2021/01/30 04:11:26;;;;;;;;;;;154.50;2252.80;;;;;;5079641;28;19908;-66
2021/01/30 04:13:52;;;;;;;;;;;154.50;2252.80;;;;;;5079877;28;19904;-65
2021/01/30 04:16:18;;;;;;;;;;;154.40;2252.80;;;;;;5078578;28;20321;-65
2021/01/30 04:18:43;;;;;;;;;;;154.40;2252.80;;;;;;5079697;28;19908;-66
2021/01/30 04:21:09;;;;;;;;;;;154.50;2252.80;;;;;;5079437;28;19912;-66
2021/01/30 04:23:34;;;;;;;;;;;179.20;2252.80;;;;;;5079106;28;19910;-65
2021/01/30 04:26:00;;;;;;;;;;;179.20;2252.80;;;;;;5079042;28;19911;-65
2021/01/30 04:28:26;;;;;;;;;;;179.20;2252.80;;;;;;5079573;28;19908;-65
2021/01/30 04:30:51;;;;;;;;;;;154.50;2252.80;;;;;;5078987;28;19950;-66
2021/01/30 04:33:17;;;;;;;;;;;154.50;2252.80;;;;;;5079216;28;19904;-66
2021/01/30 04:35:43;;;;;;;;;;;154.50;2252.80;;;;;;5078251;28;20249;-66
2021/01/30 04:38:08;;;;;;;;;;;179.20;2252.80;;;;;;5079095;28;19970;-66
2021/01/30 04:40:41;;;;;;;;;;;179.20;2252.80;;;;;;5079005;28;19947;-66
2021/01/30 04:43:07;;;;;;;;;;;179.20;2252.80;;;;;;5078729;28;19915;-66
2021/01/30 04:45:52;;;;;;;;;;;179.20;2252.80;;;;;;5078637;28;19904;-66
2021/01/30 04:48:37;;;;;;;;;;;154.50;2252.80;;;;;;5079191;28;20309;-65
2021/01/30 04:51:05;;;;;;;;;;;154.50;2252.80;;;;;;5077983;28;20210;-66
2021/01/30 04:53:49;;;;;;;;;;;154.50;2252.80;;;;;;5079075;28;19911;-66
2021/01/30 04:56:15;;;;;;;;;;;179.20;2252.80;;;;;;5078611;28;19962;-66
2021/01/30 04:58:40;;;;;;;;;;;179.30;2252.80;;;;;;5078702;28;20202;-66
2021/01/30 05:01:06;;;;;;;;;;;179.30;2252.80;;;;;;5078038;28;19908;-66
2021/01/30 05:03:50;;;;;;;;;;;179.20;2252.80;;;;;;5078591;28;19905;-66
2021/01/30 05:06:22;;;;;;;;;;;154.50;2252.80;;;;;;5078112;28;19952;-66
2021/01/30 05:08:58;;;;;;;;;;;154.50;2252.80;;;;;;5077988;28;19915;-67
2021/01/30 05:11:26;;;;;;;;;;;154.50;2252.80;;;;;;5077915;28;19957;-67
2021/01/30 05:14:02;;;;;;;;;;;179.20;2252.80;;;;;;5078436;28;19905;-67
2021/01/30 05:16:33;;;;;;;;;;;154.50;2252.80;;;;;;5077801;28;19919;-67
2021/01/30 05:19:02;;;;;;;;;;;179.20;2252.80;;;;;;5078120;28;19958;-67
2021/01/30 05:21:38;;;;;;;;;;;179.20;2252.80;;;;;;5078243;28;19904;-66
2021/01/30 05:24:04;;;;;;;;;;;179.20;2252.80;;;;;;5078555;28;19911;-67
2021/01/30 05:26:48;;;;;;;;;;;179.20;2252.80;;;;;;5077972;28;19905;-67
2021/01/30 05:29:13;;;;;;;;;;;179.20;2252.80;;;;;;5078181;28;19904;-67
2021/01/30 05:31:59;;;;;;;;;;;154.50;2252.80;;;;;;5077585;28;19957;-67
2021/01/30 05:34:25;;;;;;;;;;;179.20;2252.80;;;;;;5078447;28;20003;-66
2021/01/30 05:36:51;;;;;;;;;;;179.20;2252.80;;;;;;5077823;28;19940;-67
2021/01/30 05:39:39;;;;;;;;;;;179.20;2252.80;;;;;;5078103;28;20313;-67
2021/01/30 05:42:16;;;;;;;;;;;154.50;2252.80;;;;;;5077802;28;19982;-67
2021/01/30 05:44:44;;;;;;;;;;;154.50;2252.80;;;;;;5078051;28;19904;-67
2021/01/30 05:47:36;;;;;;;;;;;179.20;2252.80;;;;;;5077623;28;20002;-67
2021/01/30 05:50:16;;;;;;;;;;;179.20;2252.80;;;;;;5075890;28;19912;-67
2021/01/30 05:52:42;;;;;;;;;;;154.50;2252.80;;;;;;5077964;28;19951;-67
2021/01/30 05:55:26;;;;;;;;;;;154.50;2252.80;;;;;;5077612;28;19943;-67
2021/01/30 05:57:52;;;;;;;;;;;154.50;2252.80;;;;;;5077621;28;19908;-66
2021/01/30 06:00:19;;;;;;;;;;;154.50;2252.80;;;;;;5077558;28;20522;-67
2021/01/30 06:03:05;;;;;;;;;;;179.20;2252.80;;;;;;5077585;28;20226;-67
2021/01/30 06:05:39;;;;;;;;;;;179.20;2252.80;;;;;;5077021;28;19920;-67
2021/01/30 06:08:13;;;;;;;;;;;154.50;2252.80;;;;;;5077496;28;20256;-67
2021/01/30 06:10:39;;;;;;;;;;;179.20;2252.80;;;;;;5077777;28;19911;-67
2021/01/30 06:13:08;;;;;;;;;;;179.20;2252.80;;;;;;5086165;28;19915;-67
2021/01/30 06:15:35;;;;;;;;;;;179.30;2252.80;;;;;;5097841;28;19908;-67
2021/01/30 06:18:14;;;;;;;;;;;179.30;2252.80;;;;;;5097910;28;19908;-67
2021/01/30 06:20:40;;;;;;;;;;;179.20;2252.80;;;;;;5098212;28;19911;-67
2021/01/30 06:23:09;;;;;;;;;;;179.20;2252.80;;;;;;5097620;28;19924;-67
2021/01/30 06:25:37;;;;;;;;;;;179.20;2252.80;;;;;;5097519;28;20294;-67
2021/01/30 06:28:05;;;;;;;;;;;179.30;2252.80;;;;;;5097284;28;19904;-67
2021/01/30 06:30:42;;;;;;;;;;;179.30;2252.80;;;;;;5097801;28;19904;-67
2021/01/30 06:33:28;;;;;;;;;;;179.20;2252.80;;;;;;5097753;28;19904;-67
2021/01/30 06:36:06;;;;;;;;;;;179.20;2252.80;;;;;;5097175;28;20236;-67
2021/01/30 06:38:33;;;;;;;;;;;154.50;2252.80;;;;;;5097536;28;19954;-67
2021/01/30 06:41:00;;;;;;;;;;;179.20;2252.80;;;;;;5097602;28;19911;-67
2021/01/30 06:43:28;;;;;;;;;;;179.20;2252.80;;;;;;5097111;28;19904;-67
2021/01/30 06:46:02;;;;;;;;;;;179.20;2252.80;;;;;;5097878;28;19908;-67
2021/01/30 06:48:29;;;;;;;;;;;179.20;2252.80;;;;;;5097347;28;20213;-67
2021/01/30 06:50:55;;;;;;;;;;;179.30;2252.80;;;;;;5097344;28;19904;-67
2021/01/30 06:53:26;;;;;;;;;;;179.40;2252.80;;;;;;5096961;28;19906;-67
2021/01/30 06:55:51;;;;;;;;;;;179.40;2252.80;;;;;;5078089;28;19916;-67
2021/01/30 06:58:28;;;;;;;;;;;179.50;2252.80;;;;;;5079956;28;19920;-67
2021/01/30 07:01:06;;;;;;;;;;;179.70;2252.80;;;;;;5081248;28;19947;-67
2021/01/30 07:03:42;;;;;;;;;;;179.60;2252.80;;;;;;5080392;28;20187;-67
2021/01/30 07:06:15;;;;;;;;;;;179.60;2252.80;;;;;;5080758;28;19916;-67
2021/01/30 07:08:50;;;;;;;;;;;179.60;2252.80;;;;;;5080473;28;19911;-67
2021/01/30 07:11:30;;;;;;;;;;;179.70;2252.80;;;;;;5080817;28;19904;-67
2021/01/30 07:14:11;;;;;;;;;;;179.60;2252.80;;;;;;5082219;28;19991;-67
2021/01/30 07:16:44;;;;;;;;;;;179.70;2252.80;;;;;;5101013;28;19977;-67
2021/01/30 07:19:10;;;;;;;;;;;179.70;2252.80;;;;;;5087954;28;20002;-67
2021/01/30 07:21:40;;;;;;;;;;;179.80;2252.80;;;;;;5088467;28;19998;-67
2021/01/30 07:24:28;;;;;;;;;;;179.80;2252.80;;;;;;5088292;28;20000;-67
2021/01/30 07:27:14;;;;;;;;;;;179.80;2252.80;;;;;;5088665;28;19995;-67
2021/01/30 07:29:42;;;;;;;;;;;179.80;2252.80;;;;;;5087043;28;19939;-67
2021/01/30 07:32:23;;;;;;;;;;;179.90;2252.80;;;;;;5086040;28;20288;-67
2021/01/30 07:34:51;;;;;;;;;;;179.90;2252.80;;;;;;5086604;28;19916;-67
2021/01/30 07:37:23;;;;;;;;;;;179.90;2252.80;;;;;;5089458;28;20351;-67
2021/01/30 07:39:55;;;;;;;;;;;179.90;2252.80;;;;;;5086823;28;19908;-67
2021/01/30 07:42:23;;;;;;;;;;;179.90;2252.80;;;;;;5087524;28;20348;-67
2021/01/30 07:44:52;;;;;;;;;;;180.00;2252.80;;;;;;5085798;28;20313;-67
2021/01/30 07:47:21;;;;;;;;;;;180.00;2252.80;;;;;;5095747;28;19942;-67
2021/01/30 07:49:48;;;;;;;;;;;180.00;2252.80;;;;;;5089464;28;19915;-67
2021/01/30 07:52:19;;;;;;;;;;;180.00;2252.80;;;;;;5088698;28;19913;-67
2021/01/30 07:54:47;;;;;;;;;;;180.00;2252.80;;;;;;5085533;28;19915;-67
2021/01/30 07:57:31;;;;;;;;;;;180.00;2252.80;;;;;;5083084;28;19955;-67
2021/01/30 08:00:01;;;;;;;;;;;180.00;2252.80;;;;;;5087194;28;20007;-67
2021/01/30 08:02:33;;;;;;;;;;;180.00;2252.80;;;;;;5086033;28;20240;-68
2021/01/30 08:05:18;;;;;;;;;;;180.00;2252.80;;;;;;5088725;28;20207;-66
2021/01/30 08:07:54;;;;;;;;;;;180.10;2252.80;;;;;;5088713;28;19904;-65
2021/01/30 08:10:22;;;;;;;;;;;204.80;2252.80;;;;;;5096780;28;19908;-65
2021/01/30 08:12:48;;;;;;;;;;;180.10;2252.80;;;;;;5098672;28;19904;-66
2021/01/30 08:15:27;;;;;;;;;;;204.90;2252.80;;;;;;5097125;28;19994;-66
2021/01/30 08:18:05;;;;;;;;;;;204.80;2252.80;;;;;;5086477;28;19913;-65
2021/01/30 08:20:46;;;;;;;;;;;205.00;2252.80;;;;;;5079513;28;19904;-65
2021/01/30 08:23:29;;;;;;;;;;;205.00;2252.80;;;;;;5078480;28;19908;-65
2021/01/30 08:26:13;;;;;;;;;;;205.10;2252.80;;;;;;5078089;28;20017;-65
2021/01/30 08:28:42;;;;;;;;;;;205.10;2252.80;;;;;;5080364;28;19943;-65
2021/01/30 08:31:28;;;;;;;;;;;205.10;2252.80;;;;;;5079070;28;19915;-65
2021/01/30 08:34:04;;;;;;;;;;;205.20;2252.80;;;;;;5079385;28;19936;-65
2021/01/30 08:36:32;;;;;;;;;;;205.20;2252.80;;;;;;5095406;28;20306;-65
2021/01/30 08:39:02;;;;;;;;;;;205.40;2252.80;;;;;;5089492;28;19912;-66
2021/01/30 08:41:27;;;;;;;;;;;205.40;2252.80;;;;;;5078800;28;19911;-65
2021/01/30 08:43:53;;;;;;;;;;;205.50;2252.80;;;;;;5078908;28;19904;-66
2021/01/30 08:46:33;;;;;;;;;;;205.60;2252.80;;;;;;5078664;28;19911;-66
2021/01/30 08:49:00;;;;;;;;;;;205.70;2252.80;;;;;;5078922;28;19911;-65
2021/01/30 08:51:26;;;;;;;;;;;205.70;2252.80;;;;;;5078817;28;19911;-66
2021/01/30 08:53:51;;;;;;;;;;;230.50;2252.80;;;;;;5078741;28;19904;-66
2021/01/30 08:56:37;;;;;;;;;;;230.80;2252.80;;;;;;5078422;28;19909;-65
2021/01/30 08:59:03;;;;;;;;;;;230.80;2252.80;;;;;;5070836;28;19908;-66
2021/01/30 09:01:28;;;;;;;;;;;230.80;2252.80;;;;;;5078042;28;19912;-66
2021/01/30 09:03:55;;;;;;;;;;;231.10;2252.80;;;;;;5083391;28;19977;-66
2021/01/30 09:06:39;;;;;;;;;;;231.30;2252.80;;;;;;5094105;28;19923;-67
2021/01/30 09:09:14;;;;;;;;;;;231.20;2252.80;;;;;;5098786;28;19957;-67
2021/01/30 09:11:40;;;;;;;;;;;256.00;2252.80;;;;;;5097689;28;20206;-66
2021/01/30 09:14:09;;;;;;;;;;;256.10;2252.80;;;;;;5098691;28;19965;-67
2021/01/30 09:16:53;;;;;;;;;;;256.40;2252.80;;;;;;5098638;28;19973;-66
2021/01/30 09:19:28;;;;;;;;;;;256.50;2252.80;;;;;;5092485;28;19920;-66
2021/01/30 09:22:02;;;;;;;;;;;256.60;2252.80;;;;;;5087653;28;19904;-65
2021/01/30 09:24:48;;;;;;;;;;;256.60;2252.80;;;;;;5089721;28;20318;-65
2021/01/30 09:27:14;;;;;;;;;;;256.40;2252.80;;;;;;5095643;28;20265;-66
2021/01/30 09:29:41;;;;;;;;;;;256.40;2252.80;;;;;;5097722;28;19961;-66
2021/01/30 09:32:09;;;;;;;;;;;256.40;2252.80;;;;;;5095352;28;19962;-67
2021/01/30 09:34:43;;;;;;;;;;;256.30;2252.80;;;;;;5097645;28;19908;-67
2021/01/30 09:37:08;;;;;;;;;;;256.20;2252.80;;;;;;5095411;28;19908;-67
2021/01/30 09:39:35;;;;;;;;;;;256.20;2252.80;;;;;;5097718;28;19954;-67
2021/01/30 09:42:20;;;;;;;;;;;256.30;2252.80;;;;;;5097528;28;19911;-67
2021/01/30 09:44:58;;;;;;;;;;;256.40;2252.80;;;;;;5095949;28;20007;-67
2021/01/30 09:47:24;;;;;;;;;;;256.50;2252.80;;;;;;5096008;28;19911;-67
2021/01/30 09:50:01;;;;;;;;;;;256.60;2252.80;;;;;;5097451;28;19908;-67
2021/01/30 09:52:27;;;;;;;;;;;256.90;2252.80;;;;;;5096266;28;19908;-67
2021/01/30 09:54:54;;;;;;;;;;;256.80;2252.80;;;;;;5097281;28;20016;-67
2021/01/30 09:57:25;;;;;;;;;;;281.90;2278.40;;;;;;5097314;28;19933;-67
2021/01/30 09:59:58;;;;;;;;;;;282.00;2278.40;;;;;;5097297;28;19904;-67
2021/01/30 10:02:24;;;;;;;;;;;282.50;2278.40;;;;;;5095084;28;19904;-67
2021/01/30 10:05:02;;;;;;;;;;;307.50;2252.80;;;;;;5096583;28;19966;-67
2021/01/30 10:07:28;;;;;;;;;;;307.50;2227.20;;;;;;5094228;28;19908;-65
2021/01/30 10:09:54;;;;;;;;;;;307.50;2304.00;;;;;;5095438;28;19911;-65
2021/01/30 10:12:21;;;;;;;;;;;307.60;2252.80;;;;;;5095442;28;19904;-65
2021/01/30 10:14:49;;;;;;;;;;;307.70;2278.40;;;;;;5095590;28;19915;-66
2021/01/30 10:17:33;;;;;;;;;;;308.00;2252.80;;;;;;5095500;28;19912;-66
2021/01/30 10:20:07;;;;;;;;;;;332.90;2201.60;;;;;;5095666;28;19998;-65
2021/01/30 10:22:34;;;;;;;;;;;333.00;2124.80;;;;;;5095462;28;19931;-65
2021/01/30 10:25:02;;;;;;;;;;;332.90;2201.60;;;;;;5095463;28;19908;-66
2021/01/30 10:27:29;;;;;;;;;;;308.00;2176.00;;;;;;5091265;28;19907;-65
2021/01/30 10:29:58;;;;;;;;;;;332.80;2124.80;;;;;;5093685;28;20456;-65
2021/01/30 10:32:39;;;;;;;;;;;308.00;2124.80;;;;;;5094931;28;19908;-66
2021/01/30 10:35:10;;;;;;;;;;;307.30;2252.80;;;;;;5099029;28;19911;-65
2021/01/30 10:37:40;;;;;;;;;;;282.40;2278.40;;;;;;5097965;28;19918;-65
2021/01/30 10:40:08;;;;;;;;;;;282.20;2278.40;;;;;;5098159;28;19908;-65
2021/01/30 10:42:34;;;;;;;;;;;282.10;2278.40;;;;;;5098335;28;19908;-65
2021/01/30 10:45:26;;;;;;;;;;;281.80;2278.40;;;;;;5098489;28;19998;-65
2021/01/30 10:47:59;;;;;;;;;;;281.90;2278.40;;;;;;5097912;28;19904;-66
2021/01/30 10:50:28;;;;;;;;;;;281.90;2278.40;;;;;;5098934;28;19950;-65
2021/01/30 10:52:53;;;;;;;;;;;281.60;2278.40;;;;;;5097293;28;19916;-66
2021/01/30 10:55:24;;;;;;;;;;;281.90;2278.40;;;;;;5098238;28;19957;-66
2021/01/30 10:57:51;;;;;;;;;;;282.00;2278.40;;;;;;5098126;28;19911;-67
2021/01/30 11:00:23;;;;;;;;;;;282.30;2278.40;;;;;;5098613;28;19965;-65
2021/01/30 11:02:50;;;;;;;;;;;282.40;2278.40;;;;;;5097955;28;19926;-65
2021/01/30 11:05:18;;;;;;;;;;;282.30;2278.40;;;;;;5095064;28;19965;-65
2021/01/30 11:07:48;;;;;;;;;;;282.10;2278.40;;;;;;5097902;28;19958;-65
2021/01/30 11:10:22;;;;;;;;;;;282.10;2278.40;;;;;;5098000;28;19912;-66
2021/01/30 11:12:49;;;;;;;;;;;282.20;2278.40;;;;;;5097848;28;19908;-66
2021/01/30 11:15:19;;;;;;;;;;;307.50;2304.00;;;;;;5098690;28;19915;-66
2021/01/30 11:17:45;;;;;;;;;;;307.60;2304.00;;;;;;5098452;28;20003;-67
2021/01/30 11:20:11;;;;;;;;;;;307.70;2304.00;;;;;;5098202;28;20376;-67
2021/01/30 11:22:37;;;;;;;;;;;307.90;2252.80;;;;;;5094245;28;19916;-69
2021/01/30 11:25:02;;;;;;;;;;;308.10;2278.40;;;;;;5086780;28;19908;-68
2021/01/30 11:27:45;;;;;;;;;;;332.90;2201.60;;;;;;5097433;28;19904;-69
2021/01/30 11:30:14;;;;;;;;;;;333.20;2124.80;;;;;;5100466;28;19916;-69
2021/01/30 11:32:41;;;;;;;;;;;333.30;2099.20;;;;;;5095001;28;19903;-68
2021/01/30 11:35:07;;;;;;;;;;;333.60;2073.60;;;;;;5099370;28;20297;-69
2021/01/30 11:37:33;;;;;;;;;;;358.50;2048.00;;;;;;5100274;28;19908;-69
2021/01/30 11:40:06;;;;;;;;;;;358.80;2073.60;;;;;;5099888;28;19904;-69
2021/01/30 11:42:31;;;;;;;;;;;384.10;2022.40;;;;;;5099762;28;19935;-69
2021/01/30 11:44:57;;;;;;;;;;;384.10;1920.00;;;;;;5099060;28;19950;-69
2021/01/30 11:47:22;;;;;;;;;;;384.40;1894.40;;;;;;5098755;28;19911;-70
2021/01/30 11:49:48;;;;;;;;;;;409.90;1817.60;;;;;;5100197;28;19904;-69
2021/01/30 11:52:23;;;;;;;;;;;435.30;1715.20;;;;;;5099860;28;20210;-69
2021/01/30 11:54:48;;;;;;;;;;;436.10;1689.60;;;;;;5100096;28;19908;-69
2021/01/30 11:57:14;;;;;;;;;;;460.90;1638.40;;;;;;5099259;28;19930;-68
2021/01/30 11:59:40;;;;;;;;;;;486.50;1587.20;;;;;;5100093;28;19911;-68
2021/01/30 12:02:11;;;;;;;;;;;487.20;1459.20;;;;;;5097419;28;19911;-69
2021/01/30 12:04:36;;;;;;;;;;;486.90;1536.00;;;;;;5099828;28;19912;-69
2021/01/30 12:07:02;;;;;;;;;;;461.60;1536.00;;;;;;5098410;28;20313;-68
2021/01/30 12:09:27;;;;;;;;;;;435.90;1561.60;;;;;;5099583;28;19904;-71
2021/01/30 12:11:53;;;;;;;;;;;410.00;1766.40;;;;;;5099035;28;19907;-69
2021/01/30 12:14:19;;;;;;;;;;;410.40;1715.20;;;;;;5099908;28;19987;-69
2021/01/30 12:16:50;;;;;;;;;;;461.20;1664.00;;;;;;5099179;28;19908;-69
2021/01/30 12:19:16;;;;;;;;;;;537.80;1484.80;;;;;;5100024;28;19999;-68
2021/01/30 12:21:41;;;;;;;;;;;588.90;1331.20;;;;;;5099013;28;20290;-70
2021/01/30 12:24:07;;;;;;;;;;;614.70;1254.40;;;;;;5099591;28;19903;-69
2021/01/30 12:26:33;;;;;;;;;;;614.90;1203.20;;;;;;5099196;28;20285;-68
2021/01/30 12:28:58;;;;;;;;;;;589.60;1228.80;;;;;;5098449;28;20293;-70
2021/01/30 12:31:24;;;;;;;;;;;563.30;1331.20;;;;;;5098857;28;20301;-69
2021/01/30 12:33:50;;;;;;;;;;;512.80;1356.80;;;;;;5099600;28;19957;-71
2021/01/30 12:36:16;;;;;;;;;;;487.00;1459.20;;;;;;5098985;28;19908;-68
2021/01/30 12:38:41;;;;;;;;;;;461.10;1536.00;;;;;;5099247;28;19915;-70
2021/01/30 12:41:08;;;;;;;;;;;461.50;1536.00;;;;;;5099255;28;20183;-69
2021/01/30 12:43:34;;;;;;;;;;;512.60;1382.40;;;;;;5099065;28;19904;-68
2021/01/30 12:46:00;;;;;;;;;;;512.90;1382.40;;;;;;5098538;28;19904;-69
2021/01/30 12:48:25;;;;;;;;;;;512.70;1356.80;;;;;;5099405;28;19974;-68
2021/01/30 12:50:52;;;;;;;;;;;512.40;1408.00;;;;;;5098823;28;19993;-70
2021/01/30 12:53:17;;;;;;;;;;;512.60;1408.00;;;;;;5099046;28;19908;-70
2021/01/30 12:55:43;;;;;;;;;;;512.30;1382.40;;;;;;5098228;28;19914;-70
2021/01/30 12:58:12;;;;;;;;;;;512.40;1382.40;;;;;;5098318;28;19998;-69
2021/01/30 13:00:38;;;;;;;;;;;512.80;1433.60;;;;;;5098873;28;19903;-68
2021/01/30 13:03:04;;;;;;;;;;;512.80;1408.00;;;;;;5098836;28;19927;-68
2021/01/30 13:05:29;;;;;;;;;;;537.80;1382.40;;;;;;5096728;28;20019;-70
2021/01/30 13:07:55;;;;;;;;;;;538.20;1382.40;;;;;;5098288;28;19927;-68
2021/01/30 13:10:21;;;;;;;;;;;563.20;1305.60;;;;;;5095815;28;20003;-69
2021/01/30 13:12:47;;;;;;;;;;;563.20;1331.20;;;;;;5087458;28;19915;-69
2021/01/30 13:15:12;;;;;;;;;;;563.60;1305.60;;;;;;5088713;28;20351;-70
2021/01/30 13:17:38;;;;;;;;;;;563.30;1305.60;;;;;;5080396;28;19908;-68
2021/01/30 13:20:04;;;;;;;;;;;563.50;1254.40;;;;;;5088913;28;19908;-68
2021/01/30 13:22:34;;;;;;;;;;;563.50;1305.60;;;;;;5098528;28;19907;-68
2021/01/30 13:25:06;;;;;;;;;;;563.50;1280.00;;;;;;5098076;28;20273;-68
2021/01/30 13:27:33;;;;;;;;;;;563.90;1228.80;;;;;;5087043;28;19961;-67
2021/01/30 13:29:59;;;;;;;;;;;588.80;1177.60;;;;;;5085758;28;19973;-69
2021/01/30 13:32:25;;;;;;;;;;;589.10;1152.00;;;;;;5085914;28;20298;-69
2021/01/30 13:34:50;;;;;;;;;;;615.20;1126.40;;;;;;5086462;28;19908;-70
2021/01/30 13:37:16;;;;;;;;;;;742.50;998.40;;;;;;5087606;28;19954;-70
2021/01/30 13:39:42;;;;;;;;;;;768.40;947.20;;;;;;5085058;28;19904;-69
2021/01/30 13:42:07;;;;;;;;;;;717.40;972.80;;;;;;5098132;28;20293;-69
2021/01/30 13:44:33;;;;;;;;;;;665.90;1024.00;;;;;;5097540;28;19961;-70
2021/01/30 13:46:58;;;;;;;;;;;640.70;1024.00;;;;;;5097865;28;19907;-71
2021/01/30 13:49:24;;;;;;;;;;;666.10;1024.00;;;;;;5097801;28;20301;-71
2021/01/30 13:51:50;;;;;;;;;;;768.60;896.00;;;;;;5098220;28;19904;-71
2021/01/30 13:54:16;;;;;;;;;;;845.70;870.40;;;;;;5097838;28;19904;-71
2021/01/30 13:56:42;;;;;;;;;;;896.40;819.20;;;;;;5097621;28;19908;-70